»·PEaware :: DAL2727 KSLC-KRNO

DAL2727 :: KSLC-KRNO

FLIGHT INFORMATION

Flight Status: Arrived
Operator:
Delta Air Lines
More flights by this operator :: More flights under this callsign
Pilot: Carl C. (43578)
Aircraft: BOEING 737-900
(B739)
More flights by this aircraft type
Origin: KSLC Salt Lake City Intl
United States
Destination: KRNO Reno/Tahoe Intl
United States
More flights between these airports :: More routes between these airports
Route: DEZRT2 BAM MYBAD MYBAD3
File this flight plan on PilotEdge
Remarks: RMK / SIMBRIEF
Altitude:
(Current/Filed)
32,000ft
Speed:
(Current/Filed)
468kts
Departed: 04-Nov-23 10:46 AM
Arrived: 04-Nov-23 11:49 AM
Distance/Time
Traveled:
366nm/1:03
Distance/Time
To Go:
Arrived

Flight Plot

Page will automatically refresh every two minutes.

Flight plan parsing failed; only flown route is shown


Map Options




Map Legend


Flown Route
Filed Route
Departure Airport
Arrival Airport
Navaid (VOR, NDB)
Fix

Horizontal Profiles

Position Reports

Time Latitude Longitude Heading Altitude Ground
Speed
04-Nov-23 10:21 40.784717 -111.990956 7 4239ft 0kts
04-Nov-23 10:22 40.784717 -111.990956 7 4239ft 0kts
04-Nov-23 10:23 40.784717 -111.990956 7 4230ft 0kts
04-Nov-23 10:24 40.784717 -111.990956 7 4230ft 0kts
04-Nov-23 10:25 40.784717 -111.990956 7 4230ft 0kts
04-Nov-23 10:26 40.784717 -111.990956 7 4230ft 0kts
04-Nov-23 10:27 40.784717 -111.990956 7 4230ft 0kts
04-Nov-23 10:28 40.784717 -111.990956 7 4230ft 0kts
04-Nov-23 10:29 40.784717 -111.990956 7 4230ft 0kts
04-Nov-23 10:30 40.784717 -111.990956 7 4230ft 0kts
04-Nov-23 10:31 40.784717 -111.990956 7 4230ft 0kts
04-Nov-23 10:32 40.784717 -111.990956 7 4230ft 0kts
04-Nov-23 10:33 40.784692 -111.990960 7 4230ft 1kts
04-Nov-23 10:34 40.784225 -111.990558 272 4230ft 2kts
04-Nov-23 10:35 40.784229 -111.990341 264 4227ft 0kts
04-Nov-23 10:36 40.784229 -111.990341 264 4227ft 0kts
04-Nov-23 10:37 40.784170 -111.991198 264 4230ft 8kts
04-Nov-23 10:38 40.784107 -111.992443 268 4229ft 0kts
04-Nov-23 10:39 40.785670 -111.994547 355 4230ft 17kts
04-Nov-23 10:41 40.791371 -111.995216 354 4230ft 21kts
04-Nov-23 10:42 40.797226 -111.995905 355 4229ft 22kts
04-Nov-23 10:43 40.803394 -111.996613 354 4230ft 22kts
04-Nov-23 10:44 40.807735 -111.997614 263 4229ft 0kts
04-Nov-23 10:45 40.807702 -111.997975 263 4229ft 7kts
04-Nov-23 10:46 40.803449 -111.998802 175 4231ft 76kts
04-Nov-23 10:47 40.759922 -111.997907 206 5387ft 189kts
04-Nov-23 10:48 40.756870 -112.062942 294 7102ft 225kts
04-Nov-23 10:49 40.783324 -112.151266 290 8738ft 279kts
04-Nov-23 10:50 40.813904 -112.250506 290 10708ft 326kts
04-Nov-23 10:51 40.852169 -112.373023 290 11803ft 381kts
04-Nov-23 10:52 40.867369 -112.509678 263 14019ft 385kts
04-Nov-23 10:53 40.856587 -112.652504 263 15829ft 394kts
04-Nov-23 10:54 40.844605 -112.797578 262 17487ft 403kts
04-Nov-23 10:55 40.841366 -112.947256 269 18982ft 412kts
04-Nov-23 10:56 40.842456 -113.099281 268 20291ft 418kts
04-Nov-23 10:57 40.842706 -113.253928 268 21533ft 423kts
04-Nov-23 10:58 40.842701 -113.410668 268 22673ft 429kts
04-Nov-23 10:59 40.842488 -113.569157 268 23690ft 435kts
04-Nov-23 11:00 40.842059 -113.729487 268 24526ft 439kts
04-Nov-23 11:01 40.841370 -113.891698 267 25307ft 444kts
04-Nov-23 11:02 40.840297 -114.055607 267 26062ft 448kts
04-Nov-23 11:03 40.839022 -114.220268 267 27102ft 446kts
04-Nov-23 11:04 40.837522 -114.383744 267 28371ft 443kts
04-Nov-23 11:04 40.836116 -114.518328 267 29537ft 439kts
04-Nov-23 11:06 40.833905 -114.705952 267 31162ft 435kts
04-Nov-23 11:07 40.821238 -114.863984 260 32293ft 433kts
04-Nov-23 11:08 40.802702 -115.020772 260 32287ft 430kts
04-Nov-23 11:09 40.784808 -115.176477 260 32282ft 428kts
04-Nov-23 11:09 40.769763 -115.306053 260 32290ft 429kts
04-Nov-23 11:10 40.751388 -115.462382 259 32286ft 432kts
04-Nov-23 11:11 40.732704 -115.619116 259 32286ft 434kts
04-Nov-23 11:12 40.713768 -115.776304 259 32284ft 434kts
04-Nov-23 11:14 40.691437 -115.959349 259 32284ft 432kts
04-Nov-23 11:14 40.675436 -116.089000 259 32270ft 431kts
04-Nov-23 11:15 40.656023 -116.244649 259 32249ft 430kts
04-Nov-23 11:16 40.636422 -116.400047 259 32250ft 429kts
04-Nov-23 11:17 40.616678 -116.554858 258 32258ft 429kts
04-Nov-23 11:18 40.596779 -116.709193 258 32281ft 427kts
04-Nov-23 11:19 40.576701 -116.863336 258 32273ft 427kts
04-Nov-23 11:20 40.557385 -117.017463 259 32271ft 426kts
04-Nov-23 11:21 40.539184 -117.171463 259 32258ft 425kts
04-Nov-23 11:22 40.520601 -117.325129 260 32211ft 426kts
04-Nov-23 11:23 40.501835 -117.478286 260 32211ft 425kts
04-Nov-23 11:24 40.482748 -117.632358 260 32190ft 426kts
04-Nov-23 11:25 40.463586 -117.785320 260 32192ft 425kts
04-Nov-23 11:26 40.444177 -117.938523 260 32197ft 425kts
04-Nov-23 11:27 40.424309 -118.093712 260 29742ft 435kts
04-Nov-23 11:28 40.404146 -118.249452 259 26438ft 424kts
04-Nov-23 11:29 40.378459 -118.395535 242 24023ft 399kts
04-Nov-23 11:30 40.321806 -118.515953 240 22687ft 392kts
04-Nov-23 11:31 40.265801 -118.637103 240 21435ft 384kts
04-Nov-23 11:32 40.217106 -118.760500 243 20239ft 379kts
04-Nov-23 11:33 40.169182 -118.883457 243 19009ft 379kts
04-Nov-23 11:34 40.120969 -119.005648 242 17520ft 373kts
04-Nov-23 11:35 40.074096 -119.124002 242 16289ft 367kts
04-Nov-23 11:36 40.027977 -119.239891 242 15115ft 341kts
04-Nov-23 11:37 39.986270 -119.344351 242 14062ft 310kts
04-Nov-23 11:38 39.949122 -119.437161 242 13098ft 278kts
04-Nov-23 11:39 39.906949 -119.520352 233 12312ft 260kts
04-Nov-23 11:40 39.863883 -119.592594 232 11194ft 249kts
04-Nov-23 11:41 39.821961 -119.662967 233 10149ft 240kts
04-Nov-23 11:42 39.776121 -119.724033 201 8638ft 250kts
04-Nov-23 11:43 39.714572 -119.756395 204 7508ft 212kts
04-Nov-23 11:44 39.661768 -119.768860 183 7394ft 199kts
04-Nov-23 11:45 39.607816 -119.768979 180 6452ft 185kts
04-Nov-23 11:46 39.560918 -119.769127 180 5582ft 161kts
04-Nov-23 11:47 39.517134 -119.769161 181 4687ft 153kts
04-Nov-23 11:48 39.492872 -119.770018 227 4539ft 20kts
04-Nov-23 11:49 39.492830 -119.771524 345 4537ft 12kts
04-Nov-23 11:50 39.498487 -119.771549 0 4538ft 21kts
04-Nov-23 11:51 39.503995 -119.771519 0 4539ft 12kts
04-Nov-23 11:52 39.505477 -119.771780 250 4541ft 2kts
04-Nov-23 11:53 39.505195 -119.772292 243 4540ft 0kts
04-Nov-23 11:54 39.505195 -119.772292 243 4540ft 0kts

Navigation Log

Ident Type
Flight plan parsing failed, navigation log unavailable